This is the latest recevied weather packets stored in our database for station/object F4GSP-4. If no packets are shown the sender has not sent any weather packets the latest 1 day(s).
| Time | Temp. | Humidity | Pressure | Rain* | Wind** | Luminosity | Snow |
|---|---|---|---|---|---|---|---|
| 1778107097 | 3.89° C | 59% | 1023.8 hPa | - | - | - | - |
| 1778100796 | 5° C | 58% | 1023.3 hPa | - | - | - | - |
| 1778099896 | 5.56° C | 58% | 1023.1 hPa | - | - | - | - |
| 1778096295 | 6.11° C | 58% | 1022.6 hPa | - | - | - | - |
| 1778095395 | 6.67° C | 58% | 1022.4 hPa | - | - | - | - |
| 1778094495 | 7.22° C | 58% | 1022.2 hPa | - | - | - | - |
| 1778091794 | 7.78° C | 57% | 1021.8 hPa | - | - | - | - |
| 1778090894 | 8.33° C | 57% | 1021.8 hPa | - | - | - | - |
| 1778089994 | 8.89° C | 57% | 1021.7 hPa | - | - | - | - |
| 1778089094 | 8.89° C | 57% | 1021.5 hPa | - | - | - | - |
| 1778084593 | 10° C | 55% | 1020.7 hPa | - | - | - | - |
| 1778083693 | 11.11° C | 55% | 1020.5 hPa | - | - | - | - |
| 1778080092 | 16.67° C | 56% | 1020.3 hPa | - | - | - | - |
| 1778079192 | 15.56° C | 59% | 1020.4 hPa | - | - | - | - |
| 1778078292 | 14.44° C | 56% | 1020.4 hPa | - | - | - | - |
| 1778073791 | 18.33° C | 60% | 1021 hPa | - | - | - | - |
| 1778069290 | 14.44° C | 57% | 1020.7 hPa | - | - | - | - |
| 1778068390 | 14.44° C | 58% | 1020.6 hPa | - | - | - | - |
| 1778063889 | 12.78° C | 59% | 1020.3 hPa | - | - | - | - |
| 1778062989 | 11.67° C | 58% | 1020.2 hPa | - | - | - | - |
| 1778060288 | 10.56° C | 58% | 1020.3 hPa | - | - | - | - |
| 1778059388 | 11.11° C | 58% | 1020.3 hPa | - | - | - | - |
| 1778058488 | 11.67° C | 58% | 1020.2 hPa | - | - | - | - |
| 1778057588 | 11.67° C | 59% | 1020 hPa | - | - | - | - |
| 1778054887 | 11.67° C | 59% | 1019.8 hPa | - | - | - | - |
* Rain since midnight (hover to see other rain measurements)
** Current wind speed in m/s (hover to see current wind gust speed)